Time;durP1;ratioP1;P1;durP2;ratioP2;P2;SDS_P1;SDS_P2;PMS_P1;PMS_P2;Temp;Humidity;BMP_temperature;BMP_pressure;BME280_temperature;BME280_humidity;BME280_pressure;Samples;Min_cycle;Max_cycle;Signal;HPM_P1;HPM_P2
2024/02/21 00:00:27;;;;;;;;;;;9.50;59.90;;;;;;5015226;28;19928;-64
2024/02/21 00:02:59;;;;;;;;;;;9.50;59.60;;;;;;5009995;28;19929;-62
2024/02/21 00:05:28;;;;;;;;;;;9.50;59.60;;;;;;5017302;28;19929;-60
2024/02/21 00:07:56;;;;;;;;;;;9.60;59.70;;;;;;5011042;28;19929;-61
2024/02/21 00:10:24;;;;;;;;;;;9.60;59.70;;;;;;5015994;28;19929;-62
2024/02/21 00:12:53;;;;;;;;;;;9.70;59.70;;;;;;5005706;28;19940;-59
2024/02/21 00:15:21;;;;;;;;;;;9.80;59.60;;;;;;5011503;28;19952;-64
2024/02/21 00:17:50;;;;;;;;;;;9.90;59.60;;;;;;5016641;28;20691;-64
2024/02/21 00:20:18;;;;;;;;;;;9.90;59.50;;;;;;5017911;28;19991;-63
2024/02/21 00:22:47;;;;;;;;;;;10.00;59.60;;;;;;5013059;28;19936;-61
2024/02/21 00:25:15;;;;;;;;;;;10.00;59.40;;;;;;5004740;28;19937;-59
2024/02/21 00:27:43;;;;;;;;;;;10.00;59.40;;;;;;5013827;28;19940;-60
2024/02/21 00:30:11;;;;;;;;;;;10.00;59.60;;;;;;5014961;28;19936;-62
2024/02/21 00:32:39;;;;;;;;;;;10.00;59.60;;;;;;5012677;28;20448;-61
2024/02/21 00:35:09;;;;;;;;;;;10.00;59.40;;;;;;5009745;28;19933;-59
2024/02/21 00:37:37;;;;;;;;;;;10.00;59.50;;;;;;5012449;28;20624;-60
2024/02/21 00:40:06;;;;;;;;;;;10.00;59.50;;;;;;5009649;28;20023;-63
2024/02/21 00:42:34;;;;;;;;;;;10.00;59.50;;;;;;5012839;28;20368;-61
2024/02/21 00:45:02;;;;;;;;;;;10.00;59.40;;;;;;5005401;28;20494;-64
2024/02/21 00:47:30;;;;;;;;;;;10.00;59.40;;;;;;5018445;28;20480;-61
2024/02/21 00:49:59;;;;;;;;;;;10.00;59.40;;;;;;5006180;28;19929;-61
2024/02/21 00:52:28;;;;;;;;;;;10.00;59.40;;;;;;5007803;28;19932;-61
2024/02/21 00:54:56;;;;;;;;;;;10.00;59.40;;;;;;5004715;28;19964;-61
2024/02/21 00:57:24;;;;;;;;;;;10.00;59.40;;;;;;5014220;28;19929;-60
2024/02/21 00:59:52;;;;;;;;;;;10.00;59.40;;;;;;5010143;28;20408;-62
2024/02/21 01:02:20;;;;;;;;;;;10.00;59.40;;;;;;5006879;28;20007;-63
2024/02/21 01:04:48;;;;;;;;;;;10.00;59.30;;;;;;5014147;28;20646;-63
2024/02/21 01:07:17;;;;;;;;;;;10.10;59.40;;;;;;5006741;28;21943;-61
2024/02/21 01:09:46;;;;;;;;;;;10.10;59.40;;;;;;5011003;28;19951;-63
2024/02/21 01:12:14;;;;;;;;;;;10.10;59.30;;;;;;5011838;28;19940;-64
2024/02/21 01:14:42;;;;;;;;;;;10.10;59.30;;;;;;5012400;28;19936;-62
2024/02/21 01:17:10;;;;;;;;;;;10.20;59.70;;;;;;5004261;28;19936;-61
2024/02/21 01:19:38;;;;;;;;;;;10.20;59.30;;;;;;5013871;28;19926;-64
2024/02/21 01:22:06;;;;;;;;;;;10.20;59.50;;;;;;5006866;28;20405;-60
2024/02/21 01:24:34;;;;;;;;;;;10.30;59.20;;;;;;5025983;28;20016;-62
2024/02/21 01:27:04;;;;;;;;;;;10.30;59.20;;;;;;5001868;28;19932;-62
2024/02/21 01:29:32;;;;;;;;;;;10.30;59.10;;;;;;5013161;28;19932;-60
2024/02/21 01:32:00;;;;;;;;;;;10.30;59.10;;;;;;5014465;28;19956;-59
2024/02/21 01:34:28;;;;;;;;;;;10.30;59.10;;;;;;5015280;28;20086;-61
2024/02/21 01:37:04;;;;;;;;;;;10.40;59.10;;;;;;5009786;28;19929;-62
2024/02/21 01:39:32;;;;;;;;;;;10.40;59.10;;;;;;5012535;28;19929;-63
2024/02/21 01:42:00;;;;;;;;;;;10.40;59.10;;;;;;5016992;28;19929;-61
2024/02/21 01:44:30;;;;;;;;;;;10.40;59.00;;;;;;5013141;28;20072;-63
2024/02/21 01:47:00;;;;;;;;;;;10.40;59.00;;;;;;5014117;28;19929;-62
2024/02/21 01:49:29;;;;;;;;;;;10.40;59.10;;;;;;5007854;28;20023;-63
2024/02/21 01:51:57;;;;;;;;;;;10.40;59.00;;;;;;5010957;28;19956;-64
2024/02/21 01:54:28;;;;;;;;;;;10.40;59.10;;;;;;5008982;28;19936;-60
2024/02/21 01:56:57;;;;;;;;;;;10.30;59.00;;;;;;5007192;28;20454;-63
2024/02/21 01:59:25;;;;;;;;;;;10.30;59.00;;;;;;5013071;28;19932;-60
2024/02/21 02:01:56;;;;;;;;;;;10.30;59.10;;;;;;5008425;28;19937;-61
2024/02/21 02:04:24;;;;;;;;;;;10.30;59.30;;;;;;5012474;28;19929;-62
2024/02/21 02:06:55;;;;;;;;;;;10.40;59.10;;;;;;5020030;28;20401;-61
2024/02/21 02:09:23;;;;;;;;;;;10.40;59.50;;;;;;5011038;28;20592;-63
2024/02/21 02:11:51;;;;;;;;;;;10.40;59.10;;;;;;5017260;28;20018;-62
2024/02/21 02:14:19;;;;;;;;;;;10.40;59.00;;;;;;5016043;28;19935;-61
2024/02/21 02:16:48;;;;;;;;;;;10.40;58.90;;;;;;5018238;28;19952;-61
2024/02/21 02:19:18;;;;;;;;;;;10.50;59.10;;;;;;5003362;28;19925;-61
2024/02/21 02:21:47;;;;;;;;;;;10.50;59.00;;;;;;5016079;28;19975;-64
2024/02/21 02:24:16;;;;;;;;;;;10.60;59.00;;;;;;5019967;28;20264;-62
2024/02/21 02:26:44;;;;;;;;;;;10.60;58.80;;;;;;5017949;28;19929;-62
2024/02/21 02:29:12;;;;;;;;;;;10.60;58.90;;;;;;5008533;28;20307;-60
2024/02/21 02:31:41;;;;;;;;;;;10.60;58.80;;;;;;5016215;28;20014;-64
2024/02/21 02:34:09;;;;;;;;;;;10.70;58.80;;;;;;5013984;28;19940;-62
2024/02/21 02:36:37;;;;;;;;;;;10.70;59.20;;;;;;5016218;28;19933;-59
2024/02/21 02:39:06;;;;;;;;;;;10.60;58.60;;;;;;5004821;28;19928;-60
2024/02/21 02:41:37;;;;;;;;;;;10.60;58.60;;;;;;5015258;28;19929;-60
2024/02/21 02:44:05;;;;;;;;;;;10.60;58.70;;;;;;5015419;28;19959;-61
2024/02/21 02:46:34;;;;;;;;;;;10.60;58.70;;;;;;5014877;28;19943;-63
2024/02/21 02:49:02;;;;;;;;;;;10.60;58.70;;;;;;5013410;28;20260;-60
2024/02/21 02:51:30;;;;;;;;;;;10.60;58.70;;;;;;5020009;28;20387;-60
2024/02/21 02:53:58;;;;;;;;;;;10.60;59.00;;;;;;5015379;28;20031;-60
2024/02/21 02:56:26;;;;;;;;;;;10.60;58.70;;;;;;5019094;28;20063;-63
2024/02/21 02:58:55;;;;;;;;;;;10.50;58.70;;;;;;5012350;28;19937;-60
2024/02/21 03:01:24;;;;;;;;;;;10.50;58.80;;;;;;5013017;28;19933;-63
2024/02/21 03:03:52;;;;;;;;;;;10.60;58.80;;;;;;5014220;28;19987;-60
2024/02/21 03:06:20;;;;;;;;;;;10.50;58.70;;;;;;5008397;28;20256;-60
2024/02/21 03:08:48;;;;;;;;;;;10.50;58.60;;;;;;5011240;28;20396;-64
2024/02/21 03:11:16;;;;;;;;;;;10.50;58.60;;;;;;5005823;28;19921;-61
2024/02/21 03:13:44;;;;;;;;;;;10.50;58.60;;;;;;5010924;28;20008;-61
2024/02/21 03:16:17;;;;;;;;;;;10.40;58.70;;;;;;5011812;28;19936;-59
2024/02/21 03:18:46;;;;;;;;;;;10.40;58.70;;;;;;5011266;28;19929;-63
2024/02/21 03:21:14;;;;;;;;;;;10.40;58.80;;;;;;5001125;28;20172;-62
2024/02/21 03:23:42;;;;;;;;;;;10.10;58.60;;;;;;5008592;28;19992;-62
2024/02/21 03:26:10;;;;;;;;;;;10.40;58.80;;;;;;5010132;28;19933;-62
2024/02/21 03:28:39;;;;;;;;;;;10.40;58.80;;;;;;5016667;28;19928;-62
2024/02/21 03:31:07;;;;;;;;;;;10.40;58.70;;;;;;5005007;28;20023;-64
2024/02/21 03:33:37;;;;;;;;;;;10.40;58.70;;;;;;5010843;28;20306;-61
2024/02/21 03:36:05;;;;;;;;;;;10.30;59.00;;;;;;5012048;28;19936;-60
2024/02/21 03:38:33;;;;;;;;;;;10.30;58.70;;;;;;5015453;28;19955;-63
2024/02/21 03:41:01;;;;;;;;;;;10.30;58.80;;;;;;5011178;28;20019;-60
2024/02/21 03:43:30;;;;;;;;;;;10.30;58.90;;;;;;5012194;28;20056;-62
2024/02/21 03:45:58;;;;;;;;;;;10.40;58.90;;;;;;5011685;28;20090;-64
2024/02/21 03:48:26;;;;;;;;;;;10.40;58.80;;;;;;5011860;28;20318;-64
2024/02/21 03:50:55;;;;;;;;;;;10.40;58.80;;;;;;5010323;28;20003;-62
2024/02/21 03:53:23;;;;;;;;;;;10.50;58.70;;;;;;5003613;28;20393;-64
2024/02/21 03:55:51;;;;;;;;;;;10.50;58.80;;;;;;5014172;28;19925;-61
2024/02/21 03:58:19;;;;;;;;;;;10.50;58.70;;;;;;5012186;28;19929;-63
2024/02/21 04:00:47;;;;;;;;;;;10.50;58.60;;;;;;5017557;28;20030;-65
2024/02/21 04:03:15;;;;;;;;;;;10.50;58.60;;;;;;5011213;28;19940;-64
2024/02/21 04:05:43;;;;;;;;;;;10.50;58.60;;;;;;5010963;28;20015;-61
2024/02/21 04:08:13;;;;;;;;;;;10.50;58.70;;;;;;5014566;28;19936;-66
2024/02/21 04:10:41;;;;;;;;;;;10.50;58.60;;;;;;5015516;28;19935;-61
2024/02/21 04:13:10;;;;;;;;;;;10.50;58.60;;;;;;5013426;28;19937;-63
2024/02/21 04:15:38;;;;;;;;;;;10.50;58.60;;;;;;5005416;28;20387;-60
2024/02/21 04:18:06;;;;;;;;;;;10.50;58.60;;;;;;5012744;28;19944;-60
2024/02/21 04:20:34;;;;;;;;;;;10.50;58.70;;;;;;5016342;28;19925;-63
2024/02/21 04:23:03;;;;;;;;;;;10.60;58.60;;;;;;5014731;28;20081;-63
2024/02/21 04:25:32;;;;;;;;;;;10.60;58.60;;;;;;5006835;28;19933;-61
2024/02/21 04:28:00;;;;;;;;;;;10.70;58.50;;;;;;5013512;28;19933;-61
2024/02/21 04:30:28;;;;;;;;;;;10.70;58.50;;;;;;5011574;28;19933;-63
2024/02/21 04:32:56;;;;;;;;;;;10.70;58.50;;;;;;5013742;28;19968;-61
2024/02/21 04:35:24;;;;;;;;;;;10.80;58.50;;;;;;5017620;28;20071;-62
2024/02/21 04:37:53;;;;;;;;;;;10.80;58.50;;;;;;5010952;28;19972;-62
2024/02/21 04:40:21;;;;;;;;;;;10.80;58.50;;;;;;5012237;28;20421;-63
2024/02/21 04:42:50;;;;;;;;;;;10.80;58.30;;;;;;5006033;28;20020;-64
2024/02/21 04:45:18;;;;;;;;;;;10.90;58.30;;;;;;5009681;28;19936;-62
2024/02/21 04:47:46;;;;;;;;;;;10.90;58.30;;;;;;5000034;28;19929;-65
2024/02/21 04:50:15;;;;;;;;;;;10.80;58.20;;;;;;5009794;28;19933;-60
2024/02/21 04:52:43;;;;;;;;;;;10.80;58.50;;;;;;5009002;28;19937;-60
2024/02/21 04:55:11;;;;;;;;;;;10.80;58.20;;;;;;5010400;28;19969;-60
2024/02/21 04:57:40;;;;;;;;;;;10.80;58.30;;;;;;5012582;28;19929;-60
2024/02/21 05:00:10;;;;;;;;;;;10.80;58.20;;;;;;4999329;28;20090;-62
2024/02/21 05:02:38;;;;;;;;;;;10.80;58.20;;;;;;5009224;28;20043;-61
2024/02/21 05:05:07;;;;;;;;;;;10.90;58.20;;;;;;5005811;28;19941;-61
2024/02/21 05:07:35;;;;;;;;;;;10.90;58.30;;;;;;5013911;28;20040;-61
2024/02/21 05:10:04;;;;;;;;;;;10.80;58.20;;;;;;5001606;28;19941;-60
2024/02/21 05:12:32;;;;;;;;;;;10.90;58.40;;;;;;5010048;28;19929;-61
2024/02/21 05:15:00;;;;;;;;;;;10.90;58.20;;;;;;5008433;28;20213;-60
2024/02/21 05:17:30;;;;;;;;;;;10.90;58.20;;;;;;5009665;28;20561;-61
2024/02/21 05:19:58;;;;;;;;;;;10.90;58.10;;;;;;5010771;28;19929;-61
2024/02/21 05:22:26;;;;;;;;;;;10.90;58.20;;;;;;5002066;28;19981;-62
2024/02/21 05:24:54;;;;;;;;;;;10.90;58.10;;;;;;5007621;28;19944;-61
2024/02/21 05:27:22;;;;;;;;;;;10.90;58.20;;;;;;5009545;28;19929;-63
2024/02/21 05:29:50;;;;;;;;;;;10.90;58.10;;;;;;5008121;28;19965;-62
2024/02/21 05:32:18;;;;;;;;;;;10.90;58.10;;;;;;5014800;28;19960;-61
2024/02/21 05:34:51;;;;;;;;;;;11.00;58.30;;;;;;5002321;28;20391;-60
2024/02/21 05:37:19;;;;;;;;;;;11.00;58.00;;;;;;5009207;28;19929;-64
2024/02/21 05:39:47;;;;;;;;;;;11.00;58.00;;;;;;5008972;28;19939;-63
2024/02/21 05:42:15;;;;;;;;;;;11.00;57.90;;;;;;5011808;28;19998;-61
2024/02/21 05:44:43;;;;;;;;;;;10.90;57.90;;;;;;4999455;28;19929;-61
2024/02/21 05:47:15;;;;;;;;;;;10.90;57.90;;;;;;5008997;28;20008;-63
2024/02/21 05:49:43;;;;;;;;;;;10.90;58.00;;;;;;5007727;28;19992;-63
2024/02/21 05:52:12;;;;;;;;;;;10.90;58.10;;;;;;5021710;28;19937;-62
2024/02/21 05:54:40;;;;;;;;;;;10.90;58.00;;;;;;5005805;28;20035;-65
2024/02/21 05:57:09;;;;;;;;;;;10.90;58.00;;;;;;5003851;28;19933;-63
2024/02/21 05:59:40;;;;;;;;;;;10.90;58.00;;;;;;5007108;28;19929;-61
2024/02/21 06:02:08;;;;;;;;;;;10.90;58.00;;;;;;5007235;28;20455;-62
2024/02/21 06:04:36;;;;;;;;;;;11.00;58.00;;;;;;5008626;28;19929;-61
2024/02/21 06:07:04;;;;;;;;;;;10.90;57.90;;;;;;5001540;28;19944;-62
2024/02/21 06:09:34;;;;;;;;;;;10.90;57.90;;;;;;5009005;28;19933;-63
2024/02/21 06:12:02;;;;;;;;;;;10.90;57.90;;;;;;5006222;28;20376;-60
2024/02/21 06:14:30;;;;;;;;;;;10.90;57.90;;;;;;5009825;28;19925;-60
2024/02/21 06:16:59;;;;;;;;;;;10.90;57.80;;;;;;5010882;28;19929;-62
2024/02/21 06:19:27;;;;;;;;;;;10.90;57.90;;;;;;5002876;28;20387;-64
2024/02/21 06:21:55;;;;;;;;;;;10.90;57.80;;;;;;5010168;28;20296;-61
2024/02/21 06:24:23;;;;;;;;;;;10.90;58.10;;;;;;5011782;28;19951;-61
2024/02/21 06:26:53;;;;;;;;;;;10.90;57.70;;;;;;5010043;28;19936;-65
2024/02/21 06:29:21;;;;;;;;;;;10.90;57.70;;;;;;5010995;28;19936;-61
2024/02/21 06:31:49;;;;;;;;;;;10.90;57.90;;;;;;4999953;28;20401;-63
2024/02/21 06:34:17;;;;;;;;;;;11.00;57.90;;;;;;5011686;28;20020;-62
2024/02/21 06:36:46;;;;;;;;;;;11.00;57.70;;;;;;5011317;28;20408;-61
2024/02/21 06:39:14;;;;;;;;;;;11.00;57.70;;;;;;5007087;28;19972;-61
2024/02/21 06:41:42;;;;;;;;;;;11.10;57.60;;;;;;5009903;28;19933;-60
2024/02/21 06:44:12;;;;;;;;;;;11.10;57.40;;;;;;5010222;28;19927;-60
2024/02/21 06:46:40;;;;;;;;;;;11.10;58.10;;;;;;5011529;28;20040;-62
2024/02/21 06:49:08;;;;;;;;;;;11.10;57.50;;;;;;5010640;28;19929;-60
2024/02/21 06:51:37;;;;;;;;;;;11.20;57.60;;;;;;5020059;28;19933;-61
2024/02/21 06:54:05;;;;;;;;;;;11.30;57.60;;;;;;5013267;28;20028;-61
2024/02/21 06:56:33;;;;;;;;;;;11.40;57.60;;;;;;5009158;28;20414;-60
2024/02/21 06:59:01;;;;;;;;;;;11.50;57.70;;;;;;5012046;28;19925;-66
2024/02/21 07:01:31;;;;;;;;;;;11.60;57.50;;;;;;5016023;28;19972;-61
2024/02/21 07:03:59;;;;;;;;;;;11.70;57.40;;;;;;5012970;28;20027;-60
2024/02/21 07:06:27;;;;;;;;;;;11.70;57.40;;;;;;5012100;28;19961;-61
2024/02/21 07:08:57;;;;;;;;;;;11.70;57.20;;;;;;5015945;28;19936;-62
2024/02/21 07:11:25;;;;;;;;;;;11.70;57.00;;;;;;5010497;28;19972;-61
2024/02/21 07:13:54;;;;;;;;;;;11.70;56.90;;;;;;5014466;28;19933;-61
2024/02/21 07:16:22;;;;;;;;;;;11.80;57.10;;;;;;5014582;28;19929;-64
2024/02/21 07:18:51;;;;;;;;;;;11.80;57.00;;;;;;5007874;28;19931;-59
2024/02/21 07:21:19;;;;;;;;;;;11.80;56.80;;;;;;5006477;28;19934;-61
2024/02/21 07:23:47;;;;;;;;;;;11.70;56.60;;;;;;5010425;28;20490;-60
2024/02/21 07:26:15;;;;;;;;;;;11.60;56.50;;;;;;5010825;28;19944;-63
2024/02/21 07:28:43;;;;;;;;;;;11.40;56.50;;;;;;5010071;28;19929;-63
2024/02/21 07:31:12;;;;;;;;;;;11.30;56.70;;;;;;5010535;28;20303;-60
2024/02/21 07:33:40;;;;;;;;;;;11.20;56.80;;;;;;4999572;28;19933;-59
2024/02/21 07:36:11;;;;;;;;;;;11.10;56.90;;;;;;5006792;28;19988;-60
2024/02/21 07:38:39;;;;;;;;;;;11.00;57.00;;;;;;5012571;28;19925;-60
2024/02/21 07:41:07;;;;;;;;;;;10.90;57.00;;;;;;5009624;28;20794;-61
2024/02/21 07:43:35;;;;;;;;;;;10.80;57.20;;;;;;5013472;28;19944;-63
2024/02/21 07:46:04;;;;;;;;;;;10.80;57.20;;;;;;5005168;28;20020;-61
2024/02/21 07:48:32;;;;;;;;;;;10.80;57.30;;;;;;5014287;28;19960;-59
2024/02/21 07:51:02;;;;;;;;;;;10.80;57.40;;;;;;5013822;28;19929;-60
2024/02/21 07:53:32;;;;;;;;;;;10.80;57.50;;;;;;5010226;28;19979;-60
2024/02/21 07:56:00;;;;;;;;;;;10.90;57.60;;;;;;5012367;28;19935;-60
2024/02/21 07:58:30;;;;;;;;;;;11.00;57.60;;;;;;5000515;28;20026;-61
2024/02/21 08:00:58;;;;;;;;;;;11.10;57.70;;;;;;5007355;28;20086;-61
2024/02/21 08:03:26;;;;;;;;;;;11.20;57.80;;;;;;5008513;28;20048;-62
2024/02/21 08:05:54;;;;;;;;;;;11.40;57.70;;;;;;5012675;28;20535;-60
2024/02/21 08:08:23;;;;;;;;;;;11.60;57.70;;;;;;5011176;28;19929;-62
2024/02/21 08:10:52;;;;;;;;;;;11.90;57.80;;;;;;5006912;28;19929;-60
2024/02/21 08:13:20;;;;;;;;;;;12.20;57.60;;;;;;5004122;28;19929;-60
2024/02/21 08:15:48;;;;;;;;;;;12.60;57.60;;;;;;5007461;28;20003;-61
2024/02/21 08:18:17;;;;;;;;;;;12.90;57.30;;;;;;5011206;28;20384;-59
2024/02/21 08:20:45;;;;;;;;;;;13.10;57.00;;;;;;5009077;28;19939;-60
2024/02/21 08:23:13;;;;;;;;;;;13.30;56.60;;;;;;5012173;28;19940;-60
2024/02/21 08:25:41;;;;;;;;;;;13.50;56.60;;;;;;5011051;28;19929;-58
2024/02/21 08:28:11;;;;;;;;;;;13.70;56.40;;;;;;5015182;28;20435;-63
2024/02/21 08:30:39;;;;;;;;;;;13.70;56.10;;;;;;5009723;28;19972;-59
2024/02/21 08:33:07;;;;;;;;;;;13.80;56.10;;;;;;5011311;28;19932;-60
2024/02/21 08:35:35;;;;;;;;;;;13.90;56.00;;;;;;5014726;28;19983;-59
2024/02/21 08:38:03;;;;;;;;;;;14.00;56.00;;;;;;5001592;28;20040;-60
2024/02/21 08:40:31;;;;;;;;;;;14.10;56.00;;;;;;5014415;28;22113;-61
2024/02/21 08:42:59;;;;;;;;;;;14.30;56.20;;;;;;5009581;28;19937;-61
2024/02/21 08:45:29;;;;;;;;;;;14.50;56.00;;;;;;5008211;28;19932;-62
2024/02/21 08:47:57;;;;;;;;;;;15.50;57.60;;;;;;5009662;28;20014;-60
2024/02/21 08:50:25;;;;;;;;;;;16.60;56.40;;;;;;5011160;28;20265;-60
2024/02/21 08:52:56;;;;;;;;;;;17.20;54.90;;;;;;5004477;28;20477;-60
2024/02/21 08:55:25;;;;;;;;;;;17.50;54.40;;;;;;5012098;28;19936;-60
2024/02/21 08:57:53;;;;;;;;;;;17.70;54.00;;;;;;5014311;28;20003;-60
2024/02/21 09:00:26;;;;;;;;;;;17.90;53.70;;;;;;5009749;28;20047;-62
2024/02/21 09:02:56;;;;;;;;;;;18.00;53.40;;;;;;5005829;28;20303;-64
2024/02/21 09:05:24;;;;;;;;;;;18.00;52.50;;;;;;5000749;28;19926;-60
2024/02/21 09:07:53;;;;;;;;;;;17.90;52.30;;;;;;5009946;28;19934;-62
2024/02/21 09:10:22;;;;;;;;;;;17.70;52.40;;;;;;5010000;28;19937;-60
2024/02/21 09:12:50;;;;;;;;;;;17.60;52.80;;;;;;5012076;28;20543;-62
2024/02/21 09:15:18;;;;;;;;;;;17.50;52.60;;;;;;5010526;28;19929;-61
2024/02/21 09:17:46;;;;;;;;;;;17.50;53.20;;;;;;5006270;28;19929;-60
2024/02/21 09:20:17;;;;;;;;;;;17.60;53.10;;;;;;5013905;28;19941;-60
2024/02/21 09:22:46;;;;;;;;;;;17.70;52.80;;;;;;5010256;28;19933;-62
2024/02/21 09:25:14;;;;;;;;;;;17.70;52.90;;;;;;5010046;28;19985;-61
2024/02/21 09:27:42;;;;;;;;;;;17.90;53.00;;;;;;5011357;28;20023;-61
2024/02/21 09:30:10;;;;;;;;;;;18.20;53.00;;;;;;5011887;28;20060;-65
2024/02/21 09:32:39;;;;;;;;;;;18.70;53.10;;;;;;5007847;28;20790;-60
2024/02/21 09:35:08;;;;;;;;;;;19.10;52.70;;;;;;5010710;28;19960;-63
2024/02/21 09:37:37;;;;;;;;;;;19.70;52.20;;;;;;5015312;28;19929;-61
2024/02/21 09:40:06;;;;;;;;;;;19.90;50.90;;;;;;5015541;28;19936;-64
2024/02/21 09:42:38;;;;;;;;;;;20.30;50.70;;;;;;5012708;28;19936;-64
2024/02/21 09:45:08;;;;;;;;;;;20.70;49.90;;;;;;5008091;28;20016;-60
2024/02/21 09:47:44;;;;;;;;;;;21.00;49.50;;;;;;5015653;28;19929;-60
2024/02/21 09:50:13;;;;;;;;;;;21.50;48.80;;;;;;5013330;28;20628;-60
2024/02/21 09:52:44;;;;;;;;;;;21.70;48.60;;;;;;5016910;28;19998;-62
2024/02/21 09:55:14;;;;;;;;;;;21.80;47.80;;;;;;5015681;28;19940;-59
2024/02/21 09:57:43;;;;;;;;;;;21.60;47.70;;;;;;5012535;28;19929;-61
2024/02/21 10:00:12;;;;;;;;;;;21.20;47.40;;;;;;5017224;28;20438;-62
2024/02/21 10:02:40;;;;;;;;;;;20.70;47.30;;;;;;5017128;28;20011;-63
2024/02/21 10:05:09;;;;;;;;;;;20.20;48.00;;;;;;5015937;28;20502;-63
2024/02/21 10:07:38;;;;;;;;;;;20.00;48.80;;;;;;5017520;28;20499;-60
2024/02/21 10:10:09;;;;;;;;;;;20.00;49.10;;;;;;5011131;28;20599;-60
2024/02/21 10:12:37;;;;;;;;;;;20.00;49.20;;;;;;5015127;28;19929;-62
2024/02/21 10:15:06;;;;;;;;;;;20.20;49.20;;;;;;5018656;28;21553;-63
2024/02/21 10:17:34;;;;;;;;;;;20.20;49.50;;;;;;5011304;28;20504;-61
2024/02/21 10:20:09;;;;;;;;;;;20.50;49.40;;;;;;5014222;28;19929;-62
2024/02/21 10:22:39;;;;;;;;;;;20.60;48.80;;;;;;5015984;28;20458;-62
2024/02/21 10:25:10;;;;;;;;;;;20.40;48.20;;;;;;5009745;28;19961;-64
2024/02/21 10:27:38;;;;;;;;;;;20.20;48.40;;;;;;5017597;28;19933;-62
2024/02/21 10:30:08;;;;;;;;;;;19.90;48.40;;;;;;5014353;28;19982;-60
2024/02/21 10:32:49;;;;;;;;;;;19.70;48.80;;;;;;5019040;28;20052;-62
2024/02/21 10:35:26;;;;;;;;;;;19.50;48.90;;;;;;5005822;28;20394;-61
2024/02/21 10:37:55;;;;;;;;;;;19.40;49.20;;;;;;5018702;28;19941;-60
2024/02/21 10:40:26;;;;;;;;;;;19.40;49.60;;;;;;5016569;28;19929;-64
2024/02/21 10:42:56;;;;;;;;;;;19.50;50.10;;;;;;5016002;28;19933;-63
2024/02/21 10:45:27;;;;;;;;;;;19.60;50.00;;;;;;5029751;28;20382;-62
2024/02/21 10:47:56;;;;;;;;;;;19.60;49.90;;;;;;5012721;28;19944;-62
2024/02/21 10:50:26;;;;;;;;;;;19.60;49.90;;;;;;5011208;28;19992;-62
2024/02/21 10:52:57;;;;;;;;;;;19.50;50.30;;;;;;5019568;28;19933;-59
2024/02/21 10:55:31;;;;;;;;;;;19.40;50.00;;;;;;5013941;28;20022;-60
2024/02/21 10:58:02;;;;;;;;;;;19.40;50.00;;;;;;5012749;28;19944;-62
2024/02/21 11:00:30;;;;;;;;;;;19.30;49.80;;;;;;5013819;28;20075;-59
2024/02/21 11:02:59;;;;;;;;;;;19.20;49.60;;;;;;5012823;28;20010;-62
2024/02/21 11:05:28;;;;;;;;;;;19.10;49.60;;;;;;5009483;28;19956;-61
2024/02/21 11:07:56;;;;;;;;;;;19.00;49.60;;;;;;5011297;28;19925;-63
2024/02/21 11:10:27;;;;;;;;;;;19.10;50.10;;;;;;5027591;28;20755;-62
2024/02/21 11:13:06;;;;;;;;;;;19.20;49.90;;;;;;5004962;28;19937;-60
2024/02/21 11:15:34;;;;;;;;;;;19.40;50.10;;;;;;5012570;28;20311;-60
2024/02/21 11:18:02;;;;;;;;;;;19.70;50.10;;;;;;5014398;28;20019;-63
2024/02/21 11:20:35;;;;;;;;;;;19.90;50.20;;;;;;5015108;28;19929;-66
2024/02/21 11:23:03;;;;;;;;;;;20.20;50.00;;;;;;5006953;28;20043;-59
2024/02/21 11:25:33;;;;;;;;;;;20.40;50.00;;;;;;5012030;28;20028;-62
2024/02/21 11:28:03;;;;;;;;;;;20.50;49.50;;;;;;5012509;28;20034;-62
2024/02/21 11:30:32;;;;;;;;;;;20.50;49.60;;;;;;5011864;28;19933;-63
2024/02/21 11:33:01;;;;;;;;;;;20.40;49.30;;;;;;5011775;28;19957;-62
2024/02/21 11:35:32;;;;;;;;;;;20.30;49.60;;;;;;5001253;28;19948;-61
2024/02/21 11:38:10;;;;;;;;;;;20.10;49.70;;;;;;5009556;28;19985;-60
2024/02/21 11:40:41;;;;;;;;;;;19.80;49.70;;;;;;5010277;28;19929;-61
2024/02/21 11:43:09;;;;;;;;;;;19.40;49.60;;;;;;5000563;28;19929;-63
2024/02/21 11:45:39;;;;;;;;;;;19.10;50.10;;;;;;5010810;28;20028;-62
2024/02/21 11:48:07;;;;;;;;;;;18.80;50.20;;;;;;5010656;28;19972;-62
2024/02/21 11:50:36;;;;;;;;;;;18.60;50.50;;;;;;5010686;28;19968;-62
2024/02/21 11:53:04;;;;;;;;;;;18.30;50.60;;;;;;5008799;28;20594;-60
2024/02/21 11:55:34;;;;;;;;;;;18.10;50.90;;;;;;5015406;28;19929;-62
2024/02/21 11:58:04;;;;;;;;;;;18.00;51.10;;;;;;5011209;28;19928;-64
2024/02/21 12:00:32;;;;;;;;;;;17.90;51.10;;;;;;5014771;28;20256;-62
2024/02/21 12:03:01;;;;;;;;;;;17.70;50.50;;;;;;5015065;28;19944;-63
2024/02/21 12:05:30;;;;;;;;;;;17.60;50.90;;;;;;5008540;28;19933;-62
2024/02/21 12:07:59;;;;;;;;;;;17.50;51.20;;;;;;5006050;28;19944;-61
2024/02/21 12:10:28;;;;;;;;;;;17.50;51.40;;;;;;5015105;28;19933;-61
2024/02/21 12:13:08;;;;;;;;;;;17.50;51.40;;;;;;5013370;28;19995;-63
2024/02/21 12:15:36;;;;;;;;;;;17.50;51.10;;;;;;5009680;28;19936;-63
2024/02/21 12:18:05;;;;;;;;;;;17.50;51.30;;;;;;5008122;28;19930;-62
2024/02/21 12:20:36;;;;;;;;;;;17.50;51.50;;;;;;5014558;28;20020;-61
2024/02/21 12:23:04;;;;;;;;;;;17.70;51.70;;;;;;5009310;28;20253;-63
2024/02/21 12:25:34;;;;;;;;;;;17.70;51.50;;;;;;5008831;28;20406;-63
2024/02/21 12:28:03;;;;;;;;;;;17.90;51.50;;;;;;5010891;28;20019;-62
2024/02/21 12:30:35;;;;;;;;;;;18.00;51.10;;;;;;5008273;28;19933;-62
2024/02/21 12:33:03;;;;;;;;;;;18.10;50.90;;;;;;5009399;28;19929;-64
2024/02/21 12:35:33;;;;;;;;;;;18.20;51.10;;;;;;5006681;28;19925;-62
2024/02/21 12:38:02;;;;;;;;;;;18.20;51.00;;;;;;5006095;28;19944;-64
2024/02/21 12:40:32;;;;;;;;;;;18.30;50.60;;;;;;5007694;28;20244;-62
2024/02/21 12:43:04;;;;;;;;;;;18.30;50.50;;;;;;5007819;28;20350;-58
2024/02/21 12:45:34;;;;;;;;;;;18.30;50.70;;;;;;5006862;28;19929;-63
2024/02/21 12:48:04;;;;;;;;;;;18.40;50.50;;;;;;5007777;28;19929;-62
2024/02/21 12:50:32;;;;;;;;;;;18.40;50.50;;;;;;5012708;28;19929;-63
2024/02/21 12:53:00;;;;;;;;;;;18.30;49.70;;;;;;5012013;28;20005;-62
2024/02/21 12:55:29;;;;;;;;;;;18.30;50.00;;;;;;5006290;28;19936;-63
2024/02/21 12:57:57;;;;;;;;;;;18.30;50.30;;;;;;5010533;28;20053;-61
2024/02/21 13:00:27;;;;;;;;;;;18.30;50.30;;;;;;5008160;28;20447;-60
2024/02/21 13:02:57;;;;;;;;;;;18.40;50.40;;;;;;5008088;28;19929;-62
2024/02/21 13:05:25;;;;;;;;;;;18.40;50.30;;;;;;5005338;28;19929;-63
2024/02/21 13:07:54;;;;;;;;;;;18.50;50.30;;;;;;5013499;28;21598;-61
2024/02/21 13:10:22;;;;;;;;;;;18.50;50.50;;;;;;5014777;28;19929;-62
2024/02/21 13:12:50;;;;;;;;;;;18.60;50.40;;;;;;5012000;28;19925;-62
2024/02/21 13:15:18;;;;;;;;;;;18.60;50.30;;;;;;5002762;28;19999;-61
2024/02/21 13:17:46;;;;;;;;;;;18.70;50.60;;;;;;5010747;28;20020;-64
2024/02/21 13:20:16;;;;;;;;;;;18.80;50.80;;;;;;5005915;28;19936;-64
2024/02/21 13:22:44;;;;;;;;;;;18.90;50.60;;;;;;5009939;28;20029;-64
2024/02/21 13:25:15;;;;;;;;;;;18.90;50.30;;;;;;5003440;28;20720;-60
2024/02/21 13:27:43;;;;;;;;;;;18.90;50.40;;;;;;5006881;28;20717;-61
2024/02/21 13:30:12;;;;;;;;;;;18.90;50.30;;;;;;5019870;28;19940;-63
2024/02/21 13:32:40;;;;;;;;;;;19.00;50.40;;;;;;5014810;28;20270;-64
2024/02/21 13:35:09;;;;;;;;;;;19.00;50.60;;;;;;5012550;28;19936;-62
2024/02/21 13:37:38;;;;;;;;;;;19.00;50.70;;;;;;5017349;28;19939;-63
2024/02/21 13:40:09;;;;;;;;;;;19.00;50.50;;;;;;5016510;28;19935;-62
2024/02/21 13:42:38;;;;;;;;;;;19.00;50.60;;;;;;5028995;28;19933;-60
2024/02/21 13:45:07;;;;;;;;;;;19.10;50.60;;;;;;5012651;28;20014;-60
2024/02/21 13:47:38;;;;;;;;;;;19.10;50.40;;;;;;5011200;28;19941;-65
2024/02/21 13:50:09;;;;;;;;;;;19.10;50.50;;;;;;5010295;28;19940;-62
2024/02/21 13:52:37;;;;;;;;;;;19.20;50.50;;;;;;5019498;28;20555;-63
2024/02/21 13:55:08;;;;;;;;;;;19.20;50.70;;;;;;5016299;28;19925;-59
2024/02/21 13:57:36;;;;;;;;;;;19.20;50.60;;;;;;5011056;28;19955;-63
2024/02/21 14:00:04;;;;;;;;;;;19.20;50.60;;;;;;5012071;28;20347;-62
2024/02/21 14:02:50;;;;;;;;;;;19.20;50.60;;;;;;5015254;28;20432;-61
2024/02/21 14:05:19;;;;;;;;;;;19.20;50.70;;;;;;5006372;28;19959;-62
2024/02/21 14:07:47;;;;;;;;;;;19.30;50.60;;;;;;5018334;28;19956;-62
2024/02/21 14:10:16;;;;;;;;;;;19.20;50.10;;;;;;5013540;28;19967;-62
2024/02/21 14:12:45;;;;;;;;;;;19.10;50.30;;;;;;5013572;28;19933;-62
2024/02/21 14:15:13;;;;;;;;;;;19.10;50.40;;;;;;5005201;28;19945;-62
2024/02/21 14:17:41;;;;;;;;;;;19.10;50.40;;;;;;5014715;28;19931;-63
2024/02/21 14:20:09;;;;;;;;;;;19.10;50.40;;;;;;5008753;28;19965;-61
2024/02/21 14:22:40;;;;;;;;;;;19.10;50.40;;;;;;5011092;28;21193;-64
2024/02/21 14:25:10;;;;;;;;;;;19.00;50.10;;;;;;5021397;28;19935;-61